createdAt,value
2022-12-03T00:00:47.256Z,77.93
2022-12-03T00:03:15.384Z,77.63
2022-12-03T00:05:48.734Z,78.48
2022-12-03T00:08:16.023Z,78.24
2022-12-03T00:10:42.735Z,77.67
2022-12-03T00:13:09.479Z,77.69
2022-12-03T00:15:36.111Z,78.57
2022-12-03T00:18:02.748Z,78.07
2022-12-03T00:20:30.793Z,77.98
2022-12-03T00:22:57.403Z,78.16
2022-12-03T00:25:24.014Z,77.51
2022-12-03T00:27:50.650Z,77.52
2022-12-03T00:30:17.527Z,77.75
2022-12-03T00:32:44.238Z,77.31
2022-12-03T00:35:10.805Z,77.59
2022-12-03T00:37:38.835Z,77.95
2022-12-03T00:40:06.864Z,77.59
2022-12-03T00:42:33.598Z,77.71
2022-12-03T00:45:00.274Z,77.87
2022-12-03T00:47:26.919Z,77.55
2022-12-03T00:49:53.526Z,77.47
2022-12-03T00:52:20.198Z,77.38
2022-12-03T00:54:48.177Z,76.99
2022-12-03T00:57:14.806Z,77.06
2022-12-03T00:59:41.434Z,77.13
2022-12-03T01:02:08.622Z,77.56
2022-12-03T01:04:35.387Z,77.87
2022-12-03T01:07:02.038Z,77.03
2022-12-03T01:09:28.685Z,77.01
2022-12-03T01:11:56.690Z,77.49
2022-12-03T01:14:23.473Z,76.85
2022-12-03T01:16:50.170Z,77.36
2022-12-03T01:19:17.716Z,76.92
2022-12-03T01:21:46.111Z,76.44
2022-12-03T01:24:13.051Z,76.73
2022-12-03T01:26:39.805Z,76.92
2022-12-03T01:29:08.077Z,77.36
2022-12-03T01:31:34.727Z,77.37
2022-12-03T01:34:01.399Z,77.25
2022-12-03T01:36:27.969Z,77.23
2022-12-03T01:38:54.572Z,77.48
2022-12-03T01:41:23.718Z,77.50
2022-12-03T01:43:52.353Z,77.00
2022-12-03T01:46:23.609Z,77.68
2022-12-03T01:48:53.622Z,77.14
2022-12-03T01:51:20.240Z,77.17
2022-12-03T01:53:48.701Z,76.85
2022-12-03T01:56:17.167Z,76.75
2022-12-03T01:58:45.604Z,76.91
2022-12-03T02:01:15.572Z,76.62
2022-12-03T02:03:44.382Z,76.52
2022-12-03T02:06:15.971Z,76.33
2022-12-03T02:08:42.913Z,77.00
2022-12-03T02:11:17.885Z,77.00
2022-12-03T02:13:44.818Z,76.69
2022-12-03T02:16:11.556Z,76.08
2022-12-03T02:18:38.219Z,76.55
2022-12-03T02:21:15.858Z,76.70
2022-12-03T02:23:50.982Z,76.82
2022-12-03T02:26:19.220Z,76.49
2022-12-03T02:28:46.034Z,76.84
2022-12-03T02:31:12.916Z,77.04
2022-12-03T02:33:39.746Z,77.11
2022-12-03T02:36:06.821Z,76.37
2022-12-03T02:38:35.658Z,76.93
2022-12-03T02:41:06.413Z,76.71
2022-12-03T02:43:34.464Z,76.74
2022-12-03T02:46:03.627Z,76.73
2022-12-03T02:48:34.638Z,76.52
2022-12-03T02:51:04.394Z,76.04
2022-12-03T02:53:34.875Z,76.83
2022-12-03T02:56:03.384Z,76.87
2022-12-03T02:58:32.338Z,76.50
2022-12-03T03:01:01.873Z,76.26
2022-12-03T03:03:31.025Z,76.35
2022-12-03T03:06:01.102Z,76.36
2022-12-03T03:08:29.123Z,76.59
2022-12-03T03:10:56.521Z,75.66
2022-12-03T03:13:23.492Z,76.30
2022-12-03T03:15:50.240Z,76.41
2022-12-03T03:18:18.943Z,76.83
2022-12-03T03:20:45.929Z,76.12
2022-12-03T03:23:18.500Z,76.33
2022-12-03T03:25:48.257Z,76.36
2022-12-03T03:28:15.641Z,76.70
2022-12-03T03:30:43.930Z,76.52
2022-12-03T03:33:11.140Z,77.20
2022-12-03T03:35:39.757Z,76.11
2022-12-03T03:38:07.964Z,76.75
2022-12-03T03:40:34.997Z,77.38
2022-12-03T03:43:01.803Z,76.30
2022-12-03T03:45:29.547Z,76.68
2022-12-03T03:47:57.978Z,76.25
2022-12-03T03:50:25.663Z,76.52
2022-12-03T03:52:54.859Z,77.01
2022-12-03T03:55:21.596Z,76.58
2022-12-03T03:57:48.681Z,76.62
2022-12-03T04:00:16.408Z,77.20
2022-12-03T04:02:43.557Z,77.22
2022-12-03T04:05:16.751Z,76.78
2022-12-03T04:07:43.485Z,76.84
2022-12-03T04:10:12.825Z,76.94
2022-12-03T04:12:39.415Z,77.23
2022-12-03T04:15:07.508Z,77.36
2022-12-03T04:17:34.104Z,77.15
2022-12-03T04:20:00.680Z,76.73
2022-12-03T04:22:27.385Z,77.28
2022-12-03T04:24:54.406Z,77.11
2022-12-03T04:27:22.619Z,77.09
2022-12-03T04:29:49.319Z,77.79
2022-12-03T04:32:16.196Z,77.08
2022-12-03T04:34:42.916Z,77.44
2022-12-03T04:37:09.709Z,77.12
2022-12-03T04:39:36.519Z,77.69
2022-12-03T04:42:04.013Z,77.20
2022-12-03T04:44:32.448Z,77.05
2022-12-03T04:46:59.105Z,76.97
2022-12-03T04:49:25.878Z,76.93
2022-12-03T04:51:52.539Z,77.13
2022-12-03T04:54:19.238Z,76.84
2022-12-03T04:56:46.306Z,77.07
2022-12-03T04:59:16.216Z,76.77
2022-12-03T05:01:44.994Z,76.87
2022-12-03T05:04:12.139Z,77.27
2022-12-03T05:06:38.792Z,76.88
2022-12-03T05:09:05.597Z,76.77
2022-12-03T05:11:32.387Z,77.35
2022-12-03T05:13:59.020Z,76.56
2022-12-03T05:16:25.676Z,77.29
2022-12-03T05:18:53.726Z,76.94
2022-12-03T05:21:20.394Z,76.98
2022-12-03T05:23:47.063Z,77.44
2022-12-03T05:26:13.682Z,77.43
2022-12-03T05:28:40.366Z,77.08
2022-12-03T05:31:07.205Z,77.09
2022-12-03T05:33:33.938Z,77.23
2022-12-03T05:36:01.930Z,76.74
2022-12-03T05:38:28.574Z,77.08
2022-12-03T05:40:55.901Z,77.31
2022-12-03T05:43:22.529Z,77.14
2022-12-03T05:45:49.192Z,77.10
2022-12-03T05:48:16.830Z,76.68
2022-12-03T05:50:45.356Z,76.85
2022-12-03T05:53:14.520Z,76.91
2022-12-03T05:55:41.422Z,76.81
2022-12-03T05:58:08.182Z,76.98
2022-12-03T06:00:42.093Z,77.30
2022-12-03T06:03:10.350Z,77.56
2022-12-03T06:05:37.237Z,77.98
2022-12-03T06:08:04.100Z,78.60
2022-12-03T06:10:32.247Z,79.61
2022-12-03T06:12:58.869Z,80.27
2022-12-03T06:15:25.450Z,80.29
2022-12-03T06:17:52.058Z,80.53
2022-12-03T06:20:20.635Z,80.58
2022-12-03T06:22:47.824Z,80.93
2022-12-03T06:25:15.134Z,81.78
2022-12-03T06:27:43.162Z,81.77
2022-12-03T06:30:12.007Z,81.67
2022-12-03T06:32:38.589Z,82.19
2022-12-03T06:35:05.869Z,81.84
2022-12-03T06:37:32.534Z,81.76
2022-12-03T06:39:59.160Z,82.13
2022-12-03T06:42:25.750Z,82.39
2022-12-03T06:44:54.003Z,81.88
2022-12-03T06:47:20.824Z,81.88
2022-12-03T06:49:47.417Z,82.58
2022-12-03T06:52:14.019Z,82.26
2022-12-03T06:54:40.621Z,82.27
2022-12-03T06:57:07.333Z,82.71
2022-12-03T06:59:34.033Z,82.63
2022-12-03T07:02:02.145Z,82.07
2022-12-03T07:04:28.893Z,81.94
2022-12-03T07:06:55.546Z,82.25
2022-12-03T07:09:22.085Z,82.44
2022-12-03T07:11:48.733Z,81.96
2022-12-03T07:14:15.331Z,81.86
2022-12-03T07:16:41.983Z,82.23
2022-12-03T07:19:10.599Z,82.27
2022-12-03T07:21:37.584Z,81.84
2022-12-03T07:24:04.488Z,82.63
2022-12-03T07:26:31.229Z,82.15
2022-12-03T07:28:58.245Z,82.32
2022-12-03T07:31:24.905Z,82.66
2022-12-03T07:33:51.626Z,82.63
2022-12-03T07:36:19.831Z,81.97
2022-12-03T07:38:46.623Z,81.87
2022-12-03T07:41:13.266Z,82.21
2022-12-03T07:43:39.860Z,82.39
2022-12-03T07:46:06.458Z,82.00
2022-12-03T07:48:33.041Z,82.10
2022-12-03T07:50:59.799Z,82.19
2022-12-03T07:53:27.737Z,82.36
2022-12-03T07:55:54.272Z,82.37
2022-12-03T07:58:20.845Z,82.04
2022-12-03T08:00:47.689Z,82.37
2022-12-03T08:03:14.445Z,81.92
2022-12-03T08:05:41.336Z,81.87
2022-12-03T08:08:08.037Z,81.47
2022-12-03T08:10:36.092Z,81.96
2022-12-03T08:13:05.017Z,81.34
2022-12-03T08:15:38.525Z,81.92
2022-12-03T08:18:13.382Z,81.34
2022-12-03T08:20:41.318Z,81.08
2022-12-03T08:23:13.323Z,80.64
2022-12-03T08:25:41.690Z,80.58
2022-12-03T08:28:13.460Z,80.60
2022-12-03T08:30:40.900Z,81.21
2022-12-03T08:33:17.084Z,81.02
2022-12-03T08:35:48.388Z,80.61
2022-12-03T08:38:15.579Z,81.10
2022-12-03T08:40:46.778Z,81.55
2022-12-03T08:43:18.546Z,81.33
2022-12-03T08:45:45.597Z,80.71
2022-12-03T08:48:34.943Z,80.87
2022-12-03T08:51:09.087Z,81.09
2022-12-03T08:53:38.065Z,81.09
2022-12-03T08:56:20.946Z,81.48
2022-12-03T08:58:49.323Z,81.74
2022-12-03T09:01:38.780Z,81.74
2022-12-03T09:04:19.716Z,81.66
2022-12-03T09:06:46.361Z,81.92
2022-12-03T09:09:12.998Z,82.65
2022-12-03T09:11:41.166Z,82.39
2022-12-03T09:14:07.780Z,82.54
2022-12-03T09:16:34.695Z,83.06
2022-12-03T09:19:01.461Z,82.61
2022-12-03T09:21:28.150Z,82.76
2022-12-03T09:23:54.745Z,82.27
2022-12-03T09:26:21.380Z,82.20
2022-12-03T09:28:49.355Z,82.74
2022-12-03T09:31:16.680Z,82.27
2022-12-03T09:33:43.690Z,82.24
2022-12-03T09:36:10.287Z,82.25
2022-12-03T09:38:37.038Z,81.78
2022-12-03T09:41:03.743Z,82.44
2022-12-03T09:44:02.666Z,82.67
2022-12-03T09:46:22.845Z,82.57
2022-12-03T09:48:50.133Z,82.62
2022-12-03T09:51:17.971Z,82.09
2022-12-03T09:53:45.132Z,81.61
2022-12-03T09:56:18.251Z,82.54
2022-12-03T09:58:44.973Z,81.85
2022-12-03T10:01:14.854Z,82.48
2022-12-03T10:03:46.500Z,82.33
2022-12-03T10:06:17.580Z,81.97
2022-12-03T10:08:46.516Z,82.00
2022-12-03T10:11:13.168Z,80.89
2022-12-03T10:13:40.367Z,81.75
2022-12-03T10:16:10.479Z,81.52
2022-12-03T10:18:41.844Z,81.73
2022-12-03T10:21:18.667Z,80.86
2022-12-03T10:23:48.254Z,81.07
2022-12-03T10:26:16.941Z,80.76
2022-12-03T10:28:45.365Z,80.57
2022-12-03T10:31:15.194Z,80.04
2022-12-03T10:33:43.746Z,80.12
2022-12-03T10:36:24.587Z,79.97
2022-12-03T10:39:09.792Z,79.77
2022-12-03T10:41:37.133Z,80.08
2022-12-03T10:44:17.485Z,80.30
2022-12-03T10:46:44.782Z,80.11
2022-12-03T10:49:16.145Z,80.07
2022-12-03T10:51:44.477Z,79.63
2022-12-03T10:54:21.025Z,79.59
2022-12-03T10:56:49.578Z,80.36
2022-12-03T10:59:18.721Z,79.84
2022-12-03T11:01:45.924Z,80.54
2022-12-03T11:04:20.743Z,80.32
2022-12-03T11:06:49.648Z,79.90
2022-12-03T11:09:20.361Z,79.93
2022-12-03T11:11:48.255Z,80.51
2022-12-03T11:14:53.557Z,80.40
2022-12-03T11:17:43.724Z,80.56
2022-12-03T11:20:32.614Z,80.68
2022-12-03T11:23:00.666Z,80.45
2022-12-03T11:25:49.818Z,80.07
2022-12-03T11:28:38.413Z,79.78
2022-12-03T11:31:08.446Z,80.06
2022-12-03T11:33:37.163Z,80.22
2022-12-03T11:36:15.080Z,79.70
2022-12-03T11:38:54.692Z,80.32
2022-12-03T11:41:25.012Z,79.85
2022-12-03T11:44:00.098Z,79.25
2022-12-03T11:46:30.127Z,79.72
2022-12-03T11:48:59.791Z,79.54
2022-12-03T11:51:29.202Z,80.03
2022-12-03T11:53:59.776Z,79.14
2022-12-03T11:56:28.479Z,79.27
2022-12-03T11:58:59.936Z,79.53
2022-12-03T12:01:38.233Z,79.88
2022-12-03T12:04:06.916Z,79.28
2022-12-03T12:06:42.258Z,80.03
2022-12-03T12:09:10.988Z,79.26
2022-12-03T12:11:39.298Z,79.81
2022-12-03T12:14:06.724Z,80.19
2022-12-03T12:16:41.657Z,79.71
2022-12-03T12:19:28.148Z,80.05
2022-12-03T12:21:55.251Z,80.12
2022-12-03T12:24:30.900Z,80.46
2022-12-03T12:26:58.903Z,80.55
2022-12-03T12:29:25.573Z,80.17
2022-12-03T12:31:57.462Z,79.87
2022-12-03T12:34:25.216Z,80.44
2022-12-03T12:36:52.116Z,80.58
2022-12-03T12:39:18.657Z,80.52
2022-12-03T12:41:50.157Z,80.81
2022-12-03T12:44:16.781Z,80.14
2022-12-03T12:46:48.311Z,80.50
2022-12-03T12:49:15.799Z,80.11
2022-12-03T12:51:44.682Z,80.54
2022-12-03T12:54:13.577Z,80.26
2022-12-03T12:56:42.739Z,80.11
2022-12-03T12:59:13.072Z,80.04
2022-12-03T13:01:41.402Z,79.65
2022-12-03T13:04:10.981Z,79.96
2022-12-03T13:06:37.791Z,80.25
2022-12-03T13:09:08.975Z,80.27
2022-12-03T13:11:37.514Z,79.86
2022-12-03T13:14:13.296Z,80.14
2022-12-03T13:16:39.977Z,79.57
2022-12-03T13:19:19.579Z,79.52
2022-12-03T13:21:46.401Z,79.76
2022-12-03T13:24:32.059Z,80.32
2022-12-03T13:27:00.129Z,79.75
2022-12-03T13:29:28.380Z,79.86
2022-12-03T13:31:57.202Z,80.33
2022-12-03T13:34:26.422Z,79.77
2022-12-03T13:36:58.153Z,79.74
2022-12-03T13:39:30.864Z,80.15
2022-12-03T13:42:00.783Z,80.69
2022-12-03T13:44:30.434Z,80.81
2022-12-03T13:46:57.121Z,80.73
2022-12-03T13:49:24.178Z,81.23
2022-12-03T13:51:50.994Z,80.81
2022-12-03T13:54:21.601Z,81.24
2022-12-03T13:56:49.169Z,81.18
2022-12-03T13:59:18.381Z,80.37
2022-12-03T14:01:48.511Z,80.63
2022-12-03T14:04:15.190Z,81.50
2022-12-03T14:06:41.919Z,81.03
2022-12-03T14:09:08.550Z,80.84
2022-12-03T14:11:35.231Z,80.78
2022-12-03T14:14:02.133Z,81.09
2022-12-03T14:16:28.755Z,81.33
2022-12-03T14:18:56.867Z,81.25
2022-12-03T14:21:23.449Z,81.07
2022-12-03T14:23:50.046Z,81.61
2022-12-03T14:26:16.635Z,81.24
2022-12-03T14:28:43.296Z,81.86
2022-12-03T14:31:09.882Z,81.30
2022-12-03T14:33:36.513Z,81.72
2022-12-03T14:36:05.277Z,81.59
2022-12-03T14:38:31.914Z,81.81
2022-12-03T14:40:58.481Z,81.77
2022-12-03T14:43:25.039Z,81.55
2022-12-03T14:45:51.794Z,82.19
2022-12-03T14:48:18.480Z,82.01
2022-12-03T14:50:45.138Z,82.42
2022-12-03T14:53:13.047Z,82.49
2022-12-03T14:55:39.677Z,82.35
2022-12-03T14:58:06.284Z,82.45
2022-12-03T15:00:32.974Z,82.31
2022-12-03T15:02:59.622Z,82.36
2022-12-03T15:05:28.816Z,82.44
2022-12-03T15:07:56.063Z,82.25
2022-12-03T15:10:24.101Z,82.78
2022-12-03T15:12:50.721Z,82.60
2022-12-03T15:15:17.286Z,82.22
2022-12-03T15:17:43.910Z,83.09
2022-12-03T15:20:11.564Z,82.91
2022-12-03T15:22:38.113Z,83.36
2022-12-03T15:25:05.438Z,83.19
2022-12-03T15:27:33.377Z,83.45
2022-12-03T15:29:59.986Z,82.91
2022-12-03T15:32:26.653Z,83.03
2022-12-03T15:34:53.316Z,83.44
2022-12-03T15:37:19.944Z,83.32
2022-12-03T15:39:48.730Z,82.97
2022-12-03T15:42:15.657Z,83.11
2022-12-03T15:44:43.630Z,82.94
2022-12-03T15:47:10.168Z,83.45
2022-12-03T15:49:36.768Z,83.69
2022-12-03T15:52:03.412Z,83.37
2022-12-03T15:54:30.110Z,83.81
2022-12-03T15:56:57.656Z,83.92
2022-12-03T15:59:24.460Z,83.82
2022-12-03T16:01:52.581Z,84.01
2022-12-03T16:04:19.244Z,83.40
2022-12-03T16:06:45.983Z,83.61
2022-12-03T16:09:12.567Z,84.29
2022-12-03T16:11:39.100Z,84.13
2022-12-03T16:14:05.680Z,83.90
2022-12-03T16:16:32.485Z,83.76
2022-12-03T16:19:00.623Z,84.44
2022-12-03T16:21:27.529Z,84.55
2022-12-03T16:23:54.868Z,84.41
2022-12-03T16:26:21.856Z,84.65
2022-12-03T16:28:48.542Z,84.72
2022-12-03T16:31:15.343Z,84.07
2022-12-03T16:33:42.078Z,84.15
2022-12-03T16:36:10.684Z,84.83
2022-12-03T16:38:37.322Z,84.48
2022-12-03T16:41:03.968Z,84.27
2022-12-03T16:43:30.738Z,84.72
2022-12-03T16:45:57.387Z,84.69
2022-12-03T16:48:24.216Z,84.60
2022-12-03T16:50:50.942Z,84.50
2022-12-03T16:53:19.141Z,84.57
2022-12-03T16:55:45.664Z,84.47
2022-12-03T16:58:12.357Z,84.84
2022-12-03T17:00:38.915Z,84.60
2022-12-03T17:03:05.597Z,84.83
2022-12-03T17:05:32.359Z,84.64
2022-12-03T17:07:58.959Z,84.90
2022-12-03T17:10:27.185Z,85.35
2022-12-03T17:13:10.363Z,85.18
2022-12-03T17:15:37.747Z,85.12
2022-12-03T17:18:04.904Z,84.63
2022-12-03T17:20:32.173Z,84.57
2022-12-03T17:22:59.366Z,84.72
2022-12-03T17:25:28.006Z,85.19
2022-12-03T17:27:54.837Z,84.98
2022-12-03T17:30:21.536Z,84.53
2022-12-03T17:32:48.082Z,84.96
2022-12-03T17:35:14.804Z,84.51
2022-12-03T17:37:41.390Z,84.63
2022-12-03T17:40:10.399Z,84.47
2022-12-03T17:42:38.353Z,84.92
2022-12-03T17:45:06.207Z,84.92
2022-12-03T17:47:32.836Z,84.38
2022-12-03T17:49:59.636Z,84.43
2022-12-03T17:52:26.418Z,85.00
2022-12-03T17:55:10.764Z,85.02
2022-12-03T17:57:40.029Z,84.36
2022-12-03T18:00:07.910Z,84.65
2022-12-03T18:02:34.508Z,84.58
2022-12-03T18:05:01.125Z,84.40
2022-12-03T18:07:27.757Z,84.71
2022-12-03T18:09:54.687Z,84.63
2022-12-03T18:12:21.482Z,84.47
2022-12-03T18:14:49.518Z,84.49
2022-12-03T18:17:16.174Z,84.54
2022-12-03T18:19:42.729Z,84.57
2022-12-03T18:22:09.571Z,84.82
2022-12-03T18:24:36.320Z,84.49
2022-12-03T18:27:02.935Z,84.53
2022-12-03T18:29:29.529Z,84.19
2022-12-03T18:31:57.640Z,84.50
2022-12-03T18:34:24.250Z,83.93
2022-12-03T18:36:50.986Z,84.47
2022-12-03T18:39:23.949Z,84.09
2022-12-03T18:41:50.649Z,84.73
2022-12-03T18:44:17.270Z,84.15
2022-12-03T18:46:59.208Z,84.31
2022-12-03T18:49:27.231Z,84.45
2022-12-03T18:51:58.991Z,84.84
2022-12-03T18:54:26.116Z,84.87
2022-12-03T18:56:52.730Z,84.81
2022-12-03T18:59:19.604Z,84.11
2022-12-03T19:01:46.284Z,84.41
2022-12-03T19:04:12.924Z,84.35
2022-12-03T19:06:40.910Z,84.13
2022-12-03T19:09:07.478Z,84.25
2022-12-03T19:11:34.178Z,84.22
2022-12-03T19:14:00.801Z,84.66
2022-12-03T19:16:27.444Z,84.58
2022-12-03T19:18:54.956Z,84.92
2022-12-03T19:21:22.047Z,84.35
2022-12-03T19:24:22.108Z,84.92
2022-12-03T19:26:36.745Z,84.20
2022-12-03T19:29:03.448Z,84.50
2022-12-03T19:31:30.204Z,84.47
2022-12-03T19:33:56.841Z,84.46
2022-12-03T19:36:25.208Z,84.73
2022-12-03T19:38:57.232Z,84.59
2022-12-03T19:41:25.960Z,84.41
2022-12-03T19:43:54.886Z,84.50
2022-12-03T19:46:23.646Z,84.25
2022-12-03T19:48:50.714Z,84.93
2022-12-03T19:51:33.513Z,84.56
2022-12-03T19:54:02.876Z,84.71
2022-12-03T19:56:29.628Z,84.16
2022-12-03T19:58:56.631Z,84.62
2022-12-03T20:01:25.041Z,84.69
2022-12-03T20:03:55.162Z,84.43
2022-12-03T20:06:24.663Z,84.92
2022-12-03T20:08:54.856Z,84.52
2022-12-03T20:11:24.373Z,84.38
2022-12-03T20:13:53.570Z,85.00
2022-12-03T20:16:20.249Z,84.90
2022-12-03T20:18:48.799Z,84.83
2022-12-03T20:21:17.790Z,84.15
2022-12-03T20:23:44.857Z,84.46
2022-12-03T20:26:13.347Z,84.88
2022-12-03T20:28:41.943Z,84.78
2022-12-03T20:31:10.454Z,84.56
2022-12-03T20:33:37.361Z,84.97
2022-12-03T20:36:05.283Z,85.00
2022-12-03T20:38:31.929Z,84.50
2022-12-03T20:41:00.935Z,84.57
2022-12-03T20:43:28.322Z,84.75
2022-12-03T20:46:02.422Z,84.80
2022-12-03T20:48:29.678Z,84.98
2022-12-03T20:50:56.279Z,84.71
2022-12-03T20:53:25.362Z,85.19
2022-12-03T20:55:55.370Z,84.86
2022-12-03T20:58:21.994Z,84.65
2022-12-03T21:00:48.745Z,84.68
2022-12-03T21:03:16.966Z,84.55
2022-12-03T21:05:43.615Z,85.16
2022-12-03T21:08:11.166Z,84.72
2022-12-03T21:10:38.207Z,84.83
2022-12-03T21:13:04.878Z,84.77
2022-12-03T21:15:31.466Z,85.04
2022-12-03T21:17:58.182Z,84.79
2022-12-03T21:20:26.286Z,85.12
2022-12-03T21:22:52.967Z,84.53
2022-12-03T21:25:19.501Z,84.72
2022-12-03T21:27:46.121Z,85.29
2022-12-03T21:30:13.340Z,84.85
2022-12-03T21:32:39.960Z,85.09
2022-12-03T21:35:07.197Z,85.29
2022-12-03T21:37:35.148Z,85.34
2022-12-03T21:40:01.684Z,84.65
2022-12-03T21:42:36.883Z,85.40
2022-12-03T21:45:05.130Z,85.52
2022-12-03T21:47:36.982Z,85.20
2022-12-03T21:50:06.046Z,85.17
2022-12-03T21:52:35.030Z,84.67
2022-12-03T21:55:01.706Z,84.92
2022-12-03T21:57:28.361Z,85.44
2022-12-03T21:59:55.531Z,85.02
2022-12-03T22:02:22.367Z,84.79
2022-12-03T22:04:49.663Z,85.04
2022-12-03T22:07:16.692Z,84.79
2022-12-03T22:09:44.625Z,85.25
2022-12-03T22:12:11.308Z,84.77
2022-12-03T22:14:37.922Z,84.98
2022-12-03T22:17:04.527Z,84.77
2022-12-03T22:19:31.316Z,85.14
2022-12-03T22:21:57.921Z,84.83
2022-12-03T22:24:24.532Z,84.67
2022-12-03T22:26:52.506Z,85.33
2022-12-03T22:29:19.125Z,85.07
2022-12-03T22:31:45.714Z,85.59
2022-12-03T22:34:12.413Z,85.25
2022-12-03T22:36:39.016Z,85.15
2022-12-03T22:39:05.614Z,85.59
2022-12-03T22:41:32.166Z,85.37
2022-12-03T22:44:00.135Z,85.51
2022-12-03T22:46:27.034Z,85.37
2022-12-03T22:48:53.641Z,85.13
2022-12-03T22:51:22.293Z,85.74
2022-12-03T22:53:53.841Z,85.64
2022-12-03T22:56:20.465Z,85.17
2022-12-03T22:58:47.149Z,85.19
2022-12-03T23:01:21.612Z,85.46
2022-12-03T23:03:48.342Z,85.70
2022-12-03T23:06:15.125Z,85.73
2022-12-03T23:08:41.867Z,85.76
2022-12-03T23:11:08.836Z,85.57
2022-12-03T23:13:35.769Z,85.89
2022-12-03T23:16:02.722Z,85.93
2022-12-03T23:18:30.899Z,85.45
2022-12-03T23:20:57.687Z,85.87
2022-12-03T23:23:27.115Z,85.43
2022-12-03T23:25:57.502Z,85.89
2022-12-03T23:28:24.177Z,85.67
2022-12-03T23:30:50.813Z,85.50
2022-12-03T23:33:17.365Z,85.84
2022-12-03T23:35:45.375Z,85.51
2022-12-03T23:38:12.275Z,85.82
2022-12-03T23:40:42.273Z,85.47
2022-12-03T23:43:11.462Z,85.44
2022-12-03T23:45:38.052Z,85.27
2022-12-03T23:48:04.843Z,86.19
2022-12-03T23:50:31.715Z,85.60
2022-12-03T23:52:59.694Z,85.55
2022-12-03T23:55:26.239Z,86.05
2022-12-03T23:57:52.827Z,85.53
